createdAt,value
2023-02-17T00:01:27.172Z,8.58
2023-02-17T00:03:54.381Z,8.69
2023-02-17T00:06:23.924Z,8.81
2023-02-17T00:08:50.636Z,8.86
2023-02-17T00:11:18.277Z,8.98
2023-02-17T00:13:45.610Z,9.00
2023-02-17T00:16:18.870Z,9.11
2023-02-17T00:18:46.466Z,9.14
2023-02-17T00:21:16.749Z,9.23
2023-02-17T00:23:43.441Z,9.27
2023-02-17T00:26:10.049Z,9.31
2023-02-17T00:28:36.855Z,9.38
2023-02-17T00:31:13.656Z,9.41
2023-02-17T00:33:40.505Z,9.51
2023-02-17T00:36:10.611Z,9.59
2023-02-17T00:38:37.289Z,9.56
2023-02-17T00:41:06.643Z,9.72
2023-02-17T00:43:33.188Z,9.83
2023-02-17T00:46:00.148Z,9.76
2023-02-17T00:48:26.743Z,9.81
2023-02-17T00:50:53.267Z,9.57
2023-02-17T00:53:20.509Z,9.33
2023-02-17T00:55:47.173Z,9.33
2023-02-17T00:58:14.160Z,9.32
2023-02-17T01:00:40.674Z,9.27
2023-02-17T01:03:08.173Z,9.14
2023-02-17T01:05:34.973Z,9.04
2023-02-17T01:08:01.479Z,8.95
2023-02-17T01:10:28.032Z,8.83
2023-02-17T01:12:54.612Z,8.69
2023-02-17T01:15:21.122Z,8.67
2023-02-17T01:17:47.676Z,8.74
2023-02-17T01:20:14.891Z,8.68
2023-02-17T01:22:41.489Z,8.68
2023-02-17T01:25:11.217Z,8.62
2023-02-17T01:27:40.623Z,8.57
2023-02-17T01:30:08.803Z,8.51
2023-02-17T01:32:39.717Z,8.47
2023-02-17T01:35:06.609Z,8.61
2023-02-17T01:37:33.804Z,8.54
2023-02-17T01:40:00.339Z,8.47
2023-02-17T01:42:27.025Z,8.62
2023-02-17T01:45:18.454Z,8.74
2023-02-17T01:48:06.243Z,8.81
2023-02-17T01:50:36.936Z,8.85
2023-02-17T01:53:07.536Z,8.80
2023-02-17T01:55:35.948Z,8.87
2023-02-17T01:58:04.875Z,8.84
2023-02-17T02:00:33.480Z,8.80
2023-02-17T02:03:02.259Z,8.79
2023-02-17T02:05:29.401Z,8.75
2023-02-17T02:07:56.992Z,8.76
2023-02-17T02:10:24.753Z,8.73
2023-02-17T02:12:51.285Z,8.69
2023-02-17T02:15:21.276Z,8.58
2023-02-17T02:18:16.136Z,8.59
2023-02-17T02:21:12.425Z,8.47
2023-02-17T02:24:06.418Z,8.67
2023-02-17T02:26:56.658Z,8.75
2023-02-17T02:30:02.272Z,8.75
2023-02-17T02:32:49.666Z,8.72
2023-02-17T02:35:37.660Z,8.74
2023-02-17T02:38:17.073Z,8.71
2023-02-17T02:40:49.878Z,8.68
2023-02-17T02:43:17.087Z,8.75
2023-02-17T02:45:46.390Z,8.91
2023-02-17T02:48:16.027Z,8.84
2023-02-17T02:51:30.674Z,8.79
2023-02-17T02:54:00.137Z,8.67
2023-02-17T02:57:04.394Z,8.25
2023-02-17T03:00:05.663Z,7.98
2023-02-17T03:02:47.450Z,7.58
2023-02-17T03:05:18.737Z,7.37
2023-02-17T03:07:54.795Z,7.30
2023-02-17T03:10:22.201Z,7.46
2023-02-17T03:12:48.865Z,7.34
2023-02-17T03:15:30.224Z,7.35
2023-02-17T03:17:58.504Z,7.43
2023-02-17T03:20:36.147Z,7.38
2023-02-17T03:23:04.335Z,7.42
2023-02-17T03:25:30.855Z,7.52
2023-02-17T03:27:57.653Z,7.47
2023-02-17T03:30:24.195Z,7.51
2023-02-17T03:32:50.744Z,7.52
2023-02-17T03:35:17.315Z,7.76
2023-02-17T03:37:45.879Z,7.80
2023-02-17T03:40:12.399Z,7.76
2023-02-17T03:42:38.942Z,7.82
2023-02-17T03:45:05.862Z,8.02
2023-02-17T03:47:32.517Z,8.07
2023-02-17T03:49:59.040Z,8.18
2023-02-17T03:52:25.527Z,8.24
2023-02-17T03:54:52.673Z,7.87
2023-02-17T03:57:19.159Z,7.68
2023-02-17T03:59:48.647Z,7.69
2023-02-17T04:02:17.426Z,7.44
2023-02-17T04:04:43.921Z,7.46
2023-02-17T04:07:10.496Z,7.21
2023-02-17T04:09:36.963Z,7.29
2023-02-17T04:12:03.695Z,7.21
2023-02-17T04:14:30.182Z,7.20
2023-02-17T04:16:56.664Z,7.44
2023-02-17T04:19:23.140Z,7.52
2023-02-17T04:21:49.623Z,7.64
2023-02-17T04:24:18.515Z,7.63
2023-02-17T04:26:45.042Z,7.69
2023-02-17T04:29:11.592Z,7.66
2023-02-17T04:31:38.213Z,7.82
2023-02-17T04:34:04.839Z,7.72
2023-02-17T04:36:31.466Z,7.82
2023-02-17T04:38:57.976Z,7.80
2023-02-17T04:41:24.467Z,7.79
2023-02-17T04:43:50.946Z,7.80
2023-02-17T04:46:20.033Z,7.86
2023-02-17T04:48:46.638Z,7.85
2023-02-17T04:51:13.128Z,7.87
2023-02-17T04:53:39.622Z,8.09
2023-02-17T04:56:06.887Z,8.13
2023-02-17T04:58:33.521Z,8.24
2023-02-17T05:01:00.930Z,8.33
2023-02-17T05:03:27.537Z,8.20
2023-02-17T05:05:54.079Z,8.14
2023-02-17T05:08:22.095Z,8.21
2023-02-17T05:10:51.518Z,8.20
2023-02-17T05:13:21.170Z,8.18
2023-02-17T05:15:47.835Z,8.35
2023-02-17T05:18:14.397Z,8.36
2023-02-17T05:20:41.054Z,8.33
2023-02-17T05:23:07.534Z,8.21
2023-02-17T05:25:34.044Z,8.18
2023-02-17T05:28:00.648Z,8.20
2023-02-17T05:30:27.277Z,8.18
2023-02-17T05:32:56.527Z,8.44
2023-02-17T05:35:23.068Z,8.43
2023-02-17T05:37:52.754Z,8.33
2023-02-17T05:40:21.723Z,8.42
2023-02-17T05:42:48.233Z,8.50
2023-02-17T05:45:14.720Z,8.41
2023-02-17T05:47:41.197Z,8.42
2023-02-17T05:50:08.160Z,8.34
2023-02-17T05:52:34.653Z,8.40
2023-02-17T05:55:01.150Z,8.50
2023-02-17T05:57:27.754Z,8.49
2023-02-17T05:59:54.247Z,8.49
2023-02-17T06:02:23.751Z,8.58
2023-02-17T06:04:52.586Z,8.75
2023-02-17T06:07:22.454Z,8.75
2023-02-17T06:09:48.938Z,8.80
2023-02-17T06:12:15.456Z,8.77
2023-02-17T06:14:41.942Z,8.69
2023-02-17T06:17:08.518Z,8.61
2023-02-17T06:19:35.056Z,8.58
2023-02-17T06:22:01.575Z,8.48
2023-02-17T06:24:28.134Z,8.40
2023-02-17T06:26:54.641Z,8.36
2023-02-17T06:29:24.620Z,8.56
2023-02-17T06:31:56.849Z,8.57
2023-02-17T06:34:23.451Z,8.72
2023-02-17T06:36:52.927Z,8.69
2023-02-17T06:39:21.830Z,8.56
2023-02-17T06:41:48.490Z,8.59
2023-02-17T06:44:14.998Z,8.52
2023-02-17T06:46:41.580Z,8.61
2023-02-17T06:49:08.081Z,8.67
2023-02-17T06:51:34.569Z,8.59
2023-02-17T06:54:01.075Z,8.56
2023-02-17T06:56:27.607Z,8.53
2023-02-17T06:58:54.189Z,8.51
2023-02-17T07:01:28.434Z,8.76
2023-02-17T07:03:55.912Z,8.74
2023-02-17T07:06:24.171Z,8.63
2023-02-17T07:08:53.896Z,8.65
2023-02-17T07:11:21.298Z,8.84
2023-02-17T07:13:48.399Z,8.87
2023-02-17T07:16:16.361Z,9.12
2023-02-17T07:18:43.036Z,9.08
2023-02-17T07:21:10.162Z,9.01
2023-02-17T07:23:37.126Z,9.06
2023-02-17T07:26:06.708Z,9.01
2023-02-17T07:28:33.403Z,9.01
2023-02-17T07:31:09.087Z,8.98
2023-02-17T07:33:35.726Z,8.96
2023-02-17T07:36:07.406Z,8.97
2023-02-17T07:38:34.393Z,8.94
2023-02-17T07:41:23.326Z,9.03
2023-02-17T07:43:51.747Z,9.03
2023-02-17T07:46:18.410Z,9.19
2023-02-17T07:48:46.512Z,9.29
2023-02-17T07:51:18.948Z,9.37
2023-02-17T07:53:45.540Z,9.42
2023-02-17T07:56:15.583Z,9.50
2023-02-17T07:58:43.662Z,9.49
2023-02-17T08:01:12.800Z,9.46
2023-02-17T08:03:40.063Z,9.52
2023-02-17T08:06:15.502Z,9.54
2023-02-17T08:09:17.639Z,9.32
2023-02-17T08:12:02.763Z,9.35
2023-02-17T08:14:31.516Z,9.08
2023-02-17T08:16:58.649Z,9.25
2023-02-17T08:19:27.193Z,9.11
2023-02-17T08:21:56.590Z,9.30
2023-02-17T08:24:24.709Z,9.34
2023-02-17T08:26:54.022Z,9.38
2023-02-17T08:29:24.095Z,9.33
2023-02-17T08:31:53.817Z,9.27
2023-02-17T08:34:21.670Z,9.42
2023-02-17T08:36:48.252Z,9.33
2023-02-17T08:39:17.452Z,9.32
2023-02-17T08:41:45.034Z,9.49
2023-02-17T08:44:16.293Z,9.51
2023-02-17T08:46:44.695Z,9.63
2023-02-17T08:49:11.598Z,9.90
2023-02-17T08:51:38.374Z,10.03
2023-02-17T08:54:07.297Z,10.14
2023-02-17T08:56:34.799Z,10.13
2023-02-17T08:59:01.607Z,10.25
2023-02-17T09:01:28.244Z,10.23
2023-02-17T09:03:57.269Z,10.25
2023-02-17T09:06:24.134Z,10.27
2023-02-17T09:08:54.732Z,10.40
2023-02-17T09:11:22.066Z,10.56
2023-02-17T09:13:48.644Z,10.62
2023-02-17T09:16:15.424Z,10.83
2023-02-17T09:18:42.084Z,10.72
2023-02-17T09:21:11.038Z,10.88
2023-02-17T09:23:37.863Z,10.97
2023-02-17T09:26:07.412Z,10.98
2023-02-17T09:28:34.517Z,11.04
2023-02-17T09:31:25.710Z,11.11
2023-02-17T09:33:52.882Z,11.06
2023-02-17T09:36:28.356Z,11.25
2023-02-17T09:38:55.728Z,11.17
2023-02-17T09:41:24.311Z,11.24
2023-02-17T09:43:55.720Z,11.42
2023-02-17T09:46:36.585Z,11.35
2023-02-17T09:49:17.675Z,11.38
2023-02-17T09:51:53.685Z,11.38
2023-02-17T09:54:46.030Z,11.56
2023-02-17T09:57:21.815Z,11.65
2023-02-17T09:59:54.118Z,11.71
2023-02-17T10:02:40.478Z,11.95
2023-02-17T10:05:11.460Z,11.91
2023-02-17T10:07:52.075Z,12.07
2023-02-17T10:10:24.121Z,12.01
2023-02-17T10:12:56.052Z,12.00
2023-02-17T10:15:26.557Z,12.14
2023-02-17T10:18:16.237Z,12.11
2023-02-17T10:20:49.005Z,11.79
2023-02-17T10:23:24.764Z,11.95
2023-02-17T10:26:16.371Z,11.96
2023-02-17T10:29:01.917Z,12.04
2023-02-17T10:31:47.220Z,12.15
2023-02-17T10:34:32.521Z,12.29
2023-02-17T10:37:31.079Z,12.30
2023-02-17T10:39:58.662Z,12.29
2023-02-17T10:42:35.883Z,12.34
2023-02-17T10:45:15.418Z,12.61
2023-02-17T10:47:42.390Z,12.75
2023-02-17T10:50:22.171Z,12.81
2023-02-17T10:52:52.046Z,12.79
2023-02-17T10:55:36.998Z,13.06
2023-02-17T10:58:24.969Z,13.36
2023-02-17T11:00:56.448Z,13.43
2023-02-17T11:03:28.547Z,13.55
2023-02-17T11:05:56.578Z,13.84
2023-02-17T11:08:32.408Z,13.95
2023-02-17T11:11:07.057Z,14.13
2023-02-17T11:13:40.324Z,14.06
2023-02-17T11:16:07.533Z,13.98
2023-02-17T11:18:49.327Z,14.00
2023-02-17T11:21:15.912Z,13.98
2023-02-17T11:24:01.434Z,14.06
2023-02-17T11:26:31.344Z,14.15
2023-02-17T11:29:15.815Z,14.10
2023-02-17T11:31:42.551Z,14.07
2023-02-17T11:34:16.822Z,14.01
2023-02-17T11:36:57.001Z,13.79
2023-02-17T11:39:23.585Z,13.77
2023-02-17T11:41:52.597Z,13.79
2023-02-17T11:44:27.319Z,13.85
2023-02-17T11:47:12.912Z,13.76
2023-02-17T11:50:11.253Z,13.94
2023-02-17T11:53:02.134Z,13.84
2023-02-17T11:55:48.884Z,13.95
2023-02-17T11:58:44.664Z,13.90
2023-02-17T12:01:26.274Z,13.88
2023-02-17T12:03:58.807Z,13.95
2023-02-17T12:06:53.400Z,14.05
2023-02-17T12:09:47.679Z,14.26
2023-02-17T12:12:17.379Z,14.31
2023-02-17T12:15:26.043Z,14.38
2023-02-17T12:18:33.834Z,14.68
2023-02-17T12:21:19.488Z,14.54
2023-02-17T12:24:05.505Z,14.49
2023-02-17T12:26:45.433Z,14.61
2023-02-17T12:29:41.383Z,14.74
2023-02-17T12:32:27.692Z,14.41
2023-02-17T12:34:59.479Z,14.30
2023-02-17T12:37:31.679Z,14.14
2023-02-17T12:40:06.027Z,14.01
2023-02-17T12:42:41.410Z,13.83
2023-02-17T12:45:23.304Z,13.87
2023-02-17T12:47:56.311Z,13.86
2023-02-17T12:50:27.982Z,13.72
2023-02-17T12:52:59.517Z,13.71
2023-02-17T12:55:37.855Z,13.67
2023-02-17T12:58:12.260Z,13.48
2023-02-17T13:00:46.595Z,13.48
2023-02-17T13:03:13.460Z,13.50
2023-02-17T13:05:43.600Z,13.47
2023-02-17T13:11:11.109Z,13.47
2023-02-17T13:13:37.723Z,13.57
2023-02-17T13:16:13.039Z,13.46
2023-02-17T13:18:45.980Z,13.64
2023-02-17T13:21:16.246Z,13.50
2023-02-17T13:23:45.840Z,13.65
2023-02-17T13:26:20.629Z,13.76
2023-02-17T13:28:49.057Z,13.93
2023-02-17T13:31:25.038Z,14.06
2023-02-17T13:33:55.107Z,14.21
2023-02-17T13:36:36.681Z,14.44
2023-02-17T13:39:28.798Z,14.58
2023-02-17T13:41:59.951Z,14.62
2023-02-17T13:44:32.422Z,14.59
2023-02-17T13:47:03.150Z,14.44
2023-02-17T13:49:33.945Z,14.37
2023-02-17T13:52:23.339Z,14.47
2023-02-17T13:54:57.526Z,14.71
2023-02-17T13:57:29.852Z,14.90
2023-02-17T14:00:19.560Z,15.02
2023-02-17T14:02:58.094Z,15.04
2023-02-17T14:05:28.000Z,15.17
2023-02-17T14:08:00.352Z,15.07
2023-02-17T14:10:30.630Z,15.18
2023-02-17T14:12:59.245Z,15.11
2023-02-17T14:15:28.898Z,14.96
2023-02-17T14:17:58.299Z,14.97
2023-02-17T14:20:35.202Z,15.01
2023-02-17T14:23:05.962Z,14.90
2023-02-17T14:25:38.232Z,14.23
2023-02-17T14:28:17.298Z,14.27
2023-02-17T14:30:43.941Z,14.08
2023-02-17T14:33:16.384Z,14.10
2023-02-17T14:35:52.037Z,13.66
2023-02-17T14:38:25.060Z,13.66
2023-02-17T14:40:53.472Z,13.64
2023-02-17T14:43:20.207Z,13.53
2023-02-17T14:45:49.792Z,13.55
2023-02-17T14:48:16.292Z,13.59
2023-02-17T14:50:44.273Z,13.33
2023-02-17T14:53:32.699Z,13.46
2023-02-17T14:56:01.902Z,13.43
2023-02-17T14:58:29.403Z,13.49
2023-02-17T15:00:58.678Z,13.17
2023-02-17T15:03:27.614Z,13.33
2023-02-17T15:05:54.711Z,13.47
2023-02-17T15:08:34.926Z,13.48
2023-02-17T15:11:02.423Z,13.46
2023-02-17T15:13:29.249Z,13.41
2023-02-17T15:15:56.149Z,13.26
2023-02-17T15:18:23.156Z,13.26
2023-02-17T15:20:51.601Z,13.23
2023-02-17T15:23:21.178Z,13.32
2023-02-17T15:25:48.594Z,13.15
2023-02-17T15:28:17.618Z,13.11
2023-02-17T15:30:51.709Z,13.15
2023-02-17T15:33:18.566Z,13.20
2023-02-17T15:35:46.109Z,13.37
2023-02-17T15:38:14.254Z,13.43
2023-02-17T15:40:42.066Z,13.50
2023-02-17T15:43:16.994Z,13.47
2023-02-17T15:45:43.583Z,13.52
2023-02-17T15:48:25.222Z,13.61
2023-02-17T15:50:52.665Z,13.48
2023-02-17T15:53:19.735Z,13.37
2023-02-17T15:55:47.244Z,13.41
2023-02-17T15:58:19.385Z,13.43
2023-02-17T16:00:46.545Z,13.41
2023-02-17T16:03:14.609Z,13.38
2023-02-17T16:05:41.953Z,13.32
2023-02-17T16:08:08.962Z,13.35
2023-02-17T16:10:35.929Z,13.37
2023-02-17T16:13:04.719Z,13.30
2023-02-17T16:15:32.831Z,13.28
2023-02-17T16:17:59.953Z,13.26
2023-02-17T16:20:34.655Z,13.22
2023-02-17T16:23:02.398Z,13.10
2023-02-17T16:25:29.965Z,13.15
2023-02-17T16:27:57.799Z,13.03
2023-02-17T16:30:34.223Z,13.01
2023-02-17T16:33:02.072Z,13.02
2023-02-17T16:35:30.978Z,13.07
2023-02-17T16:38:05.392Z,12.92
2023-02-17T16:40:36.482Z,12.86
2023-02-17T16:43:03.272Z,12.73
2023-02-17T16:45:32.714Z,12.73
2023-02-17T16:48:01.235Z,12.80
2023-02-17T16:50:33.942Z,12.72
2023-02-17T16:53:03.956Z,12.71
2023-02-17T16:55:33.106Z,12.70
2023-02-17T16:58:00.350Z,12.67
2023-02-17T17:00:32.668Z,12.77
2023-02-17T17:02:59.498Z,12.73
2023-02-17T17:05:29.053Z,12.89
2023-02-17T17:07:59.826Z,12.81
2023-02-17T17:10:29.202Z,12.72
2023-02-17T17:12:58.531Z,12.64
2023-02-17T17:15:28.983Z,12.56
2023-02-17T17:18:04.819Z,12.48
2023-02-17T17:20:37.243Z,12.45
2023-02-17T17:23:06.634Z,12.38
2023-02-17T17:25:35.408Z,12.40
2023-02-17T17:28:01.891Z,12.40
2023-02-17T17:30:32.037Z,12.36
2023-02-17T17:32:59.211Z,12.30
2023-02-17T17:35:30.243Z,12.26
2023-02-17T17:38:01.173Z,12.36
2023-02-17T17:40:48.264Z,12.34
2023-02-17T17:43:17.288Z,12.33
2023-02-17T17:45:45.318Z,12.34
2023-02-17T17:48:17.034Z,12.25
2023-02-17T17:50:44.592Z,12.18
2023-02-17T17:53:11.251Z,12.21
2023-02-17T17:55:37.792Z,12.14
2023-02-17T17:58:04.395Z,11.96
2023-02-17T18:00:31.293Z,11.90
2023-02-17T18:03:00.886Z,11.79
2023-02-17T18:05:30.729Z,11.62
2023-02-17T18:07:59.225Z,11.66
2023-02-17T18:10:27.942Z,11.65
2023-02-17T18:12:54.563Z,11.64
2023-02-17T18:15:21.322Z,11.67
2023-02-17T18:17:49.213Z,11.77
2023-02-17T18:20:16.000Z,11.82
2023-02-17T18:22:42.656Z,11.81
2023-02-17T18:25:09.319Z,11.69
2023-02-17T18:27:45.565Z,11.67
2023-02-17T18:30:16.059Z,11.49
2023-02-17T18:32:44.284Z,11.71
2023-02-17T18:35:13.698Z,11.57
2023-02-17T18:37:43.992Z,11.47
2023-02-17T18:40:12.753Z,11.39
2023-02-17T18:42:40.954Z,11.58
2023-02-17T18:45:08.954Z,11.51
2023-02-17T18:47:35.706Z,11.48
2023-02-17T18:50:02.269Z,11.50
2023-02-17T18:52:29.655Z,11.47
2023-02-17T18:55:14.455Z,11.37
2023-02-17T18:57:59.935Z,11.26
2023-02-17T19:00:33.081Z,11.40
2023-02-17T19:03:00.055Z,11.56
2023-02-17T19:05:31.279Z,11.52
2023-02-17T19:08:00.712Z,11.47
2023-02-17T19:10:30.618Z,11.53
2023-02-17T19:12:58.617Z,11.49
2023-02-17T19:15:25.523Z,11.57
2023-02-17T19:18:04.141Z,11.53
2023-02-17T19:20:33.730Z,11.40
2023-02-17T19:23:02.365Z,11.37
2023-02-17T19:25:31.742Z,11.43
2023-02-17T19:28:02.239Z,11.43
2023-02-17T19:30:31.965Z,11.40
2023-02-17T19:33:01.538Z,11.42
2023-02-17T19:35:30.359Z,11.43
2023-02-17T19:37:56.871Z,11.49
2023-02-17T19:40:23.355Z,11.60
2023-02-17T19:42:49.850Z,11.50
2023-02-17T19:45:16.626Z,11.58
2023-02-17T19:47:43.086Z,11.53
2023-02-17T19:50:09.747Z,11.36
2023-02-17T19:52:37.779Z,11.49
2023-02-17T19:55:05.047Z,11.45
2023-02-17T19:57:31.705Z,11.35
2023-02-17T19:59:58.279Z,11.24
2023-02-17T20:02:24.908Z,11.16
2023-02-17T20:04:51.461Z,11.14
2023-02-17T20:07:18.027Z,11.12
2023-02-17T20:09:44.571Z,11.15
2023-02-17T20:12:11.217Z,11.21
2023-02-17T20:14:38.534Z,11.18
2023-02-17T20:17:05.305Z,11.15
2023-02-17T20:19:38.562Z,11.28
2023-02-17T20:22:06.558Z,11.25
2023-02-17T20:24:33.961Z,11.25
2023-02-17T20:27:03.551Z,11.19
2023-02-17T20:29:34.310Z,11.14
2023-02-17T20:32:05.625Z,11.06
2023-02-17T20:34:39.309Z,11.18
2023-02-17T20:37:07.058Z,11.19
2023-02-17T20:39:38.925Z,11.12
2023-02-17T20:42:05.882Z,11.24
2023-02-17T20:44:32.709Z,11.19
2023-02-17T20:47:02.164Z,11.13
2023-02-17T20:49:31.051Z,11.05
2023-02-17T20:51:57.711Z,11.11
2023-02-17T20:54:25.581Z,11.09
2023-02-17T20:56:52.447Z,11.14
2023-02-17T20:59:19.129Z,11.05
2023-02-17T21:01:45.991Z,11.07
2023-02-17T21:04:14.115Z,11.06
2023-02-17T21:06:41.414Z,11.07
2023-02-17T21:09:13.905Z,11.10
2023-02-17T21:11:40.957Z,11.10
2023-02-17T21:14:07.874Z,11.11
2023-02-17T21:16:34.509Z,11.10
2023-02-17T21:19:04.662Z,11.18
2023-02-17T21:21:34.540Z,11.21
2023-02-17T21:24:04.359Z,11.13
2023-02-17T21:26:33.014Z,11.26
2023-02-17T21:29:01.984Z,11.24
2023-02-17T21:31:34.597Z,11.23
2023-02-17T21:34:04.545Z,11.23
2023-02-17T21:36:33.899Z,11.25
2023-02-17T21:39:04.614Z,11.18
2023-02-17T21:41:34.043Z,11.11
2023-02-17T21:44:20.303Z,11.09
2023-02-17T21:46:46.919Z,11.07
2023-02-17T21:49:14.243Z,11.13
2023-02-17T21:51:41.453Z,11.11
2023-02-17T21:54:09.586Z,11.11
2023-02-17T21:56:36.477Z,11.14
2023-02-17T21:59:06.102Z,11.17
2023-02-17T22:01:35.452Z,11.17
2023-02-17T22:04:04.951Z,11.32
2023-02-17T22:06:36.396Z,11.28
2023-02-17T22:09:08.576Z,11.43
2023-02-17T22:11:38.554Z,11.41
2023-02-17T22:14:10.102Z,11.27
2023-02-17T22:16:38.092Z,11.35
2023-02-17T22:19:07.025Z,11.29
2023-02-17T22:21:36.573Z,11.31
2023-02-17T22:24:04.108Z,11.30
2023-02-17T22:26:33.942Z,11.35
2023-02-17T22:29:00.486Z,11.30
2023-02-17T22:31:29.525Z,11.28
2023-02-17T22:33:57.926Z,11.26
2023-02-17T22:36:25.176Z,11.25
2023-02-17T22:38:52.614Z,11.26
2023-02-17T22:41:21.582Z,11.26
2023-02-17T22:43:49.171Z,11.25
2023-02-17T22:46:18.511Z,11.23
2023-02-17T22:48:47.872Z,11.20
2023-02-17T22:51:18.365Z,11.16
2023-02-17T22:53:45.802Z,11.20
2023-02-17T22:56:12.882Z,11.23
2023-02-17T22:58:40.364Z,11.28
2023-02-17T23:01:13.172Z,11.27
2023-02-17T23:03:40.719Z,11.24
2023-02-17T23:06:12.527Z,11.20
2023-02-17T23:08:39.553Z,11.15
2023-02-17T23:11:11.408Z,11.22
2023-02-17T23:13:38.635Z,11.25
2023-02-17T23:16:09.633Z,11.23
2023-02-17T23:18:39.190Z,11.19
2023-02-17T23:21:12.933Z,11.21
2023-02-17T23:23:40.002Z,11.25
2023-02-17T23:26:09.064Z,11.29
2023-02-17T23:28:39.478Z,11.25
2023-02-17T23:31:10.178Z,11.28
2023-02-17T23:33:39.542Z,11.29
2023-02-17T23:36:10.604Z,11.23
2023-02-17T23:38:40.317Z,11.19
2023-02-17T23:41:10.852Z,11.19
2023-02-17T23:43:41.252Z,11.19
2023-02-17T23:46:10.808Z,11.19
2023-02-17T23:48:39.207Z,11.04
2023-02-17T23:51:05.913Z,11.09
2023-02-17T23:53:32.983Z,11.01
2023-02-17T23:56:11.398Z,10.97
2023-02-17T23:58:41.632Z,11.02
